Time;durP1;ratioP1;P1;durP2;ratioP2;P2;SDS_P1;SDS_P2;PMS_P1;PMS_P2;Temp;Humidity;BMP_temperature;BMP_pressure;BME280_temperature;BME280_humidity;BME280_pressure;Samples;Min_cycle;Max_cycle;Signal;HPM_P1;HPM_P2
2022/06/10 00:00:40;;;;;;;10.70;4.70;;;;;;;10.74;92.69;102024.56;4999391;28;20022;-82
2022/06/10 00:03:07;;;;;;;9.60;4.90;;;;;;;10.98;92.83;102067.38;5017235;28;20105;-82
2022/06/10 00:05:36;;;;;;;9.07;5.13;;;;;;;10.80;92.68;102042.34;5016915;28;20481;-83
2022/06/10 00:08:06;;;;;;;11.15;5.38;;;;;;;10.90;92.70;102066.88;5016822;28;20484;-83
2022/06/10 00:10:32;;;;;;;11.63;6.18;;;;;;;10.89;92.40;102060.88;5016893;28;20076;-82
2022/06/10 00:12:57;;;;;;;11.82;6.97;;;;;;;10.94;92.88;102063.28;5016627;28;20124;-83
2022/06/10 00:15:23;;;;;;;15.00;6.57;;;;;;;10.90;93.05;102064.28;5016537;28;20029;-81
2022/06/10 00:17:48;;;;;;;11.88;6.68;;;;;;;10.87;93.26;102069.59;5016855;28;20071;-81
2022/06/10 00:20:17;;;;;;;13.93;6.85;;;;;;;10.84;93.38;102070.59;5016805;28;20097;-83
2022/06/10 00:22:43;;;;;;;10.50;6.00;;;;;;;10.82;93.95;102069.00;5016586;28;20013;-82
2022/06/10 00:25:09;;;;;;;13.23;6.75;;;;;;;10.86;93.89;102070.53;5016258;28;20038;-80
2022/06/10 00:27:34;;;;;;;10.55;6.47;;;;;;;10.82;93.87;102069.81;5016662;28;20022;-83
2022/06/10 00:29:59;;;;;;;13.52;6.65;;;;;;;10.78;93.75;102063.09;5016364;28;20101;-82
2022/06/10 00:32:28;;;;;;;12.10;6.80;;;;;;;10.76;94.08;102061.50;5016423;28;20466;-82
2022/06/10 00:34:53;;;;;;;10.68;6.43;;;;;;;10.75;93.83;102065.00;5016617;28;20079;-83
2022/06/10 00:37:19;;;;;;;13.00;6.25;;;;;;;10.69;94.20;102049.75;5016087;28;20049;-83
2022/06/10 00:39:44;;;;;;;11.95;6.30;;;;;;;10.76;94.26;102064.09;5016091;28;20026;-82
2022/06/10 00:42:11;;;;;;;14.48;6.43;;;;;;;10.56;94.46;102037.38;5016227;28;20552;-82
2022/06/10 00:44:40;;;;;;;11.82;5.90;;;;;;;10.69;94.97;102067.84;5016163;28;20030;-82
2022/06/10 00:47:21;;;;;;;12.68;6.03;;;;;;;10.56;95.09;102037.38;5015927;28;20111;-81
2022/06/10 00:50:10;;;;;;;12.75;6.72;;;;;;;10.50;95.36;102032.47;5016154;28;20065;-82
2022/06/10 00:52:41;;;;;;;12.38;6.30;;;;;;;10.54;95.81;102030.59;5015936;28;20029;-83
2022/06/10 00:55:07;;;;;;;11.50;6.70;;;;;;;10.57;95.42;102033.88;5015915;28;20026;-82
2022/06/10 00:57:41;;;;;;;12.27;6.25;;;;;;;10.75;95.96;102063.25;5015717;28;20385;-81
2022/06/10 01:00:11;;;;;;;11.60;6.70;;;;;;;10.76;95.89;102057.16;5016113;28;20026;-83
2022/06/10 01:02:38;;;;;;;11.75;6.13;;;;;;;10.70;95.98;102043.66;5015606;28;20022;-82
2022/06/10 01:05:25;;;;;;;13.25;6.25;;;;;;;10.68;96.28;102032.56;5015824;28;20376;-83
2022/06/10 01:07:55;;;;;;;14.52;6.38;;;;;;;10.70;96.66;102034.16;5015282;28;20030;-82
2022/06/10 01:10:21;;;;;;;10.23;5.72;;;;;;;10.77;96.45;102050.25;5015287;28;20461;-83
2022/06/10 01:13:06;;;;;;;12.75;6.80;;;;;;;10.87;96.74;102056.69;5015673;28;20021;-82
2022/06/10 01:15:48;;;;;;;14.55;6.78;;;;;;;10.91;96.99;102046.16;5015562;28;20492;-82
2022/06/10 01:18:40;;;;;;;10.88;5.95;;;;;;;10.92;96.63;102036.66;5015407;28;20029;-81
2022/06/10 01:21:08;;;;;;;14.48;6.65;;;;;;;11.15;96.70;102053.69;5015329;28;20065;-80
2022/06/10 01:24:07;;;;;;;13.85;6.47;;;;;;;11.29;96.50;102055.63;4997769;28;20059;-83
2022/06/10 01:29:57;;;;;;;16.27;5.93;;;;;;;11.62;94.79;102055.81;5015806;28;20049;-83
2022/06/10 01:32:48;;;;;;;13.52;5.78;;;;;;;11.55;94.57;102028.56;5015168;28;20037;-82
2022/06/10 01:35:41;;;;;;;13.80;5.60;;;;;;;11.81;95.28;102053.22;5015027;28;20042;-82
2022/06/10 01:38:13;;;;;;;15.45;5.88;;;;;;;11.91;93.75;102052.69;5014750;28;20053;-83
2022/06/10 01:40:43;;;;;;;15.45;5.93;;;;;;;12.00;93.28;102046.25;5014913;28;20030;-83
2022/06/10 01:43:17;;;;;;;13.60;5.82;;;;;;;12.08;92.57;102057.03;5014918;28;20030;-82
2022/06/10 01:46:05;;;;;;;13.32;5.40;;;;;;;12.15;91.69;102044.63;4997301;28;20033;-82
2022/06/10 01:49:08;;;;;;;11.30;5.05;;;;;;;12.25;92.07;102058.78;4935345;29;20039;-81
2022/06/10 01:51:40;;;;;;;10.60;4.95;;;;;;;12.30;91.53;102057.66;4935291;29;20144;-83
2022/06/10 01:54:20;;;;;;;13.10;5.32;;;;;;;12.36;90.16;102053.91;4935145;29;20036;-83
2022/06/10 01:56:51;;;;;;;10.57;4.93;;;;;;;12.29;90.64;102034.38;4935137;29;20074;-83
2022/06/10 02:03:06;;;;;;;13.98;4.88;;;;;;;12.48;89.59;102055.84;5456105;23;20045;-83
2022/06/10 02:10:06;;;;;;;14.15;4.85;;;;;;;12.59;89.81;102055.31;4994090;28;20392;-82
2022/06/10 02:12:37;;;;;;;10.45;4.38;;;;;;;12.62;89.18;102053.41;4995046;28;20393;-82
2022/06/10 02:15:15;;;;;;;10.93;4.50;;;;;;;12.67;89.02;102042.78;4995054;28;20034;-83
2022/06/10 02:17:49;;;;;;;12.60;4.50;;;;;;;12.72;88.81;102052.91;4976581;28;20119;-83
2022/06/10 02:20:22;;;;;;;14.38;4.65;;;;;;;12.66;89.11;102042.88;4994510;28;20469;-84
2022/06/10 02:22:49;;;;;;;11.35;4.47;;;;;;;12.65;88.72;102042.03;4994403;28;20030;-85
2022/06/10 02:25:19;;;;;;;14.98;4.63;;;;;;;12.77;88.83;102054.34;4994335;28;20030;-85
2022/06/10 02:27:51;;;;;;;11.40;3.90;;;;;;;12.52;87.97;102017.69;4977049;28;20110;-84
2022/06/10 02:30:27;;;;;;;10.73;4.30;;;;;;;12.54;87.41;102013.25;4977237;28;20022;-82
2022/06/10 02:32:56;;;;;;;10.50;4.00;;;;;;;12.82;87.82;102062.72;4994495;28;20036;-83
2022/06/10 02:35:26;;;;;;;10.63;4.65;;;;;;;12.85;88.03;102067.75;4994490;28;20033;-81
2022/06/10 02:38:29;;;;;;;13.02;4.22;;;;;;;12.86;87.84;102069.41;4994436;28;20037;-84
2022/06/10 02:41:09;;;;;;;13.63;4.03;;;;;;;12.89;87.81;102068.44;4983804;28;20042;-84
2022/06/10 02:44:09;;;;;;;11.80;4.10;;;;;;;12.89;88.11;102058.06;4994418;28;20109;-81
2022/06/10 02:47:22;;;;;;;9.68;4.18;;;;;;;12.97;86.89;102068.00;4915312;29;20040;-81
2022/06/10 02:49:49;;;;;;;11.65;3.72;;;;;;;13.00;86.63;102065.28;4877501;29;20045;-83
2022/06/10 02:52:17;;;;;;;9.65;3.53;;;;;;;12.96;86.57;102056.78;4862098;29;20134;-82
2022/06/10 02:54:43;;;;;;;11.40;3.90;;;;;;;13.02;86.95;102061.66;4877369;29;20068;-81
2022/06/10 02:57:11;;;;;;;12.43;3.95;;;;;;;13.03;87.02;102065.09;4877351;29;20072;-81
2022/06/10 03:02:38;;;;;;;13.38;4.32;;;;;;;13.09;85.95;102067.38;4877555;29;20136;-82
2022/06/10 03:05:24;;;;;;;11.63;3.90;;;;;;;12.95;86.25;102042.16;4877542;29;20057;-82
2022/06/10 03:08:29;;;;;;;11.38;3.90;;;;;;;12.76;85.89;102006.00;4877493;29;20057;-82
2022/06/10 03:10:56;;;;;;;15.98;4.18;;;;;;;13.17;86.31;102072.97;4858400;29;20078;-82
2022/06/10 03:13:32;;;;;;;10.15;3.45;;;;;;;13.18;86.64;102072.06;4858669;29;20049;-83
2022/06/10 03:16:19;;;;;;;11.70;4.22;;;;;;;13.21;86.26;102087.47;4858668;29;20038;-84
2022/06/10 03:18:55;;;;;;;10.00;3.42;;;;;;;13.23;86.24;102082.22;4858611;29;20041;-81
2022/06/10 03:21:45;;;;;;;14.25;3.65;;;;;;;13.25;85.91;102091.56;4858577;29;20045;-83
2022/06/10 03:24:14;;;;;;;9.93;3.47;;;;;;;13.28;86.08;102090.59;4914630;29;20468;-82
2022/06/10 03:26:55;;;;;;;16.15;3.67;;;;;;;13.30;86.23;102102.56;4927609;29;20035;-82
2022/06/10 03:29:39;;;;;;;;;;;;;;;13.33;85.99;102093.75;4934020;29;20119;-83
2022/06/10 03:32:16;;;;;;;12.77;3.17;;;;;;;13.27;86.05;102086.31;4933778;29;20001;-80
2022/06/10 03:34:47;;;;;;;11.88;3.30;;;;;;;13.36;86.63;102091.81;4933671;29;20043;-84
2022/06/10 03:37:13;;;;;;;11.25;3.15;;;;;;;13.37;87.13;102090.94;4933567;29;20489;-81
2022/06/10 03:39:41;;;;;;;12.52;3.42;;;;;;;13.38;87.41;102090.00;4933184;29;20578;-81
2022/06/10 03:42:18;;;;;;;10.95;3.17;;;;;;;13.40;87.53;102093.34;4933403;29;20511;-82
2022/06/10 03:44:47;;;;;;;12.50;3.15;;;;;;;13.39;87.64;102088.25;4933345;29;20031;-81
2022/06/10 03:47:19;;;;;;;10.82;3.00;;;;;;;13.16;87.87;102045.34;4952536;28;20038;-83
2022/06/10 03:49:57;;;;;;;12.00;3.47;;;;;;;13.44;88.04;102094.00;4993205;28;20033;-82
2022/06/10 03:52:26;;;;;;;12.13;3.80;;;;;;;13.44;88.15;102087.06;4993160;28;20057;-82
2022/06/10 03:54:51;;;;;;;10.00;3.40;;;;;;;13.46;87.56;102090.41;4992941;28;20084;-81
2022/06/10 03:57:17;;;;;;;11.48;3.45;;;;;;;13.29;87.09;102064.56;4993120;28;20030;-83
2022/06/10 03:59:44;;;;;;;8.93;3.20;;;;;;;13.04;86.97;102017.50;4993186;28;20026;-81
2022/06/10 04:02:10;;;;;;;8.25;3.03;;;;;;;13.42;86.72;102078.53;4975671;28;20421;-82
2022/06/10 04:04:36;;;;;;;10.57;3.45;;;;;;;13.47;86.94;102092.09;4993330;28;20656;-83
2022/06/10 04:07:01;;;;;;;9.48;3.00;;;;;;;13.59;86.97;102103.56;4993092;28;20443;-81
2022/06/10 04:09:27;;;;;;;11.07;3.80;;;;;;;13.35;87.64;102066.81;4993060;28;20031;-83
2022/06/10 04:11:52;;;;;;;13.15;3.30;;;;;;;13.60;88.39;102117.38;4992878;28;20054;-83
2022/06/10 04:14:17;;;;;;;9.35;3.53;;;;;;;13.59;88.67;102111.34;4993181;28;20065;-81
2022/06/10 04:16:42;;;;;;;12.48;4.10;;;;;;;13.56;88.97;102110.66;4993128;28;20030;-81
2022/06/10 04:19:11;;;;;;;11.68;3.60;;;;;;;13.25;89.42;102062.22;4993021;28;20026;-83
2022/06/10 04:21:36;;;;;;;10.60;3.63;;;;;;;13.56;89.02;102116.69;4993009;28;20034;-83
2022/06/10 04:24:01;;;;;;;9.60;3.40;;;;;;;13.42;89.55;102090.66;4993043;28;20030;-81
2022/06/10 04:26:26;;;;;;;12.52;3.15;;;;;;;13.58;89.27;102109.69;4992732;28;20034;-81
2022/06/10 04:28:52;;;;;;;18.17;4.40;;;;;;;13.71;89.79;102113.25;4992915;28;20079;-82
2022/06/10 04:31:18;;;;;;;10.05;3.75;;;;;;;13.83;88.84;102119.53;4992848;28;20537;-82
2022/06/10 04:33:44;;;;;;;13.88;3.90;;;;;;;13.87;89.28;102117.59;4992872;28;20031;-82
2022/06/10 04:36:14;;;;;;;10.73;3.30;;;;;;;14.05;88.09;102122.56;4992580;28;20107;-83
2022/06/10 04:38:40;;;;;;;14.10;4.05;;;;;;;14.15;87.70;102117.69;4992846;28;20107;-82
2022/06/10 04:41:06;;;;;;;11.27;3.90;;;;;;;14.27;88.45;102114.41;4992932;28;20059;-83
2022/06/10 04:43:35;;;;;;;10.05;3.80;;;;;;;14.39;86.70;102112.00;4975219;28;20034;-80
2022/06/10 04:46:02;;;;;;;17.48;4.47;;;;;;;14.49;87.24;102111.41;4996247;28;20050;-82
2022/06/10 04:48:28;;;;;;;10.68;3.65;;;;;;;14.49;86.44;102098.41;4996227;28;20030;-82
2022/06/10 04:50:53;;;;;;;10.27;3.72;;;;;;;14.45;85.45;102094.31;4996152;28;20062;-82
2022/06/10 04:53:18;;;;;;;12.27;3.75;;;;;;;14.49;85.56;102113.19;4996488;28;20027;-83
2022/06/10 04:55:44;;;;;;;8.68;3.45;;;;;;;14.27;85.65;102079.78;4996419;28;20022;-81
2022/06/10 04:58:10;;;;;;;12.05;4.05;;;;;;;14.34;86.22;102105.31;4996176;28;20034;-84
2022/06/10 05:00:39;;;;;;;10.20;3.65;;;;;;;14.40;86.11;102105.88;4978822;28;20089;-83
2022/06/10 05:03:10;;;;;;;7.97;3.05;;;;;;;14.26;85.96;102088.50;5017797;23;20521;-83
2022/06/10 05:05:35;;;;;;;12.10;3.47;;;;;;;14.23;85.38;102083.47;4998349;28;20064;-83
2022/06/10 05:08:01;;;;;;;9.35;2.95;;;;;;;14.06;86.63;102056.72;5015573;28;20053;-84
2022/06/10 05:10:27;;;;;;;10.27;3.45;;;;;;;14.01;86.15;102045.75;5015354;28;20026;-83
2022/06/10 05:12:52;;;;;;;10.93;3.20;;;;;;;13.58;85.62;101969.53;5015443;28;20038;-84
2022/06/10 05:15:23;;;;;;;13.32;3.67;;;;;;;13.78;85.07;102010.75;5015525;28;20022;-84
2022/06/10 05:17:59;;;;;;;9.60;3.58;;;;;;;13.97;85.06;102039.09;5015284;28;20033;-83
2022/06/10 05:20:47;;;;;;;13.93;3.40;;;;;;;14.20;84.75;102068.91;5015350;28;20511;-82
2022/06/10 05:23:16;;;;;;;9.38;3.35;;;;;;;14.09;85.11;102053.13;5015239;28;20030;-83
2022/06/10 05:25:47;;;;;;;13.90;3.45;;;;;;;14.50;84.88;102096.66;5015210;28;20026;-83
2022/06/10 05:28:17;;;;;;;13.30;3.47;;;;;;;13.82;84.61;101980.25;5015247;28;20040;-82
2022/06/10 05:30:43;;;;;;;12.50;3.25;;;;;;;14.39;84.81;102063.47;5015281;28;20045;-83
2022/06/10 05:33:09;;;;;;;8.77;3.33;;;;;;;14.71;83.55;102100.56;5015364;28;20536;-81
2022/06/10 05:35:36;;;;;;;11.70;3.17;;;;;;;14.77;82.87;102099.38;5015347;28;20382;-81
2022/06/10 05:38:02;;;;;;;10.32;3.10;;;;;;;14.85;83.08;102095.38;5014842;28;20029;-79
2022/06/10 05:40:30;;;;;;;13.57;3.28;;;;;;;14.92;82.95;102101.88;5015155;28;20026;-81
2022/06/10 05:42:56;;;;;;;12.68;3.38;;;;;;;14.86;83.11;102070.22;5014808;28;20026;-82
2022/06/10 05:45:22;;;;;;;9.00;3.10;;;;;;;14.97;82.61;102073.00;5014896;28;20041;-81
2022/06/10 05:47:51;;;;;;;11.68;3.20;;;;;;;15.15;82.87;102095.28;5014826;28;20022;-80
2022/06/10 05:50:23;;;;;;;10.82;3.28;;;;;;;15.32;82.21;102103.78;4997220;28;20409;-80
2022/06/10 05:52:49;;;;;;;12.90;3.47;;;;;;;15.39;82.28;102105.91;5015065;28;20421;-81
2022/06/10 05:55:14;;;;;;;9.80;3.22;;;;;;;15.44;81.52;102103.84;5014603;28;20022;-81
2022/06/10 05:57:40;;;;;;;12.70;3.85;;;;;;;15.59;81.75;102103.81;5014292;28;20488;-81
2022/06/10 06:00:13;;;;;;;13.35;3.45;;;;;;;15.49;81.08;102060.13;5015069;28;20025;-81
2022/06/10 06:02:41;;;;;;;11.68;3.25;;;;;;;15.90;80.17;102097.47;5014539;28;20088;-83
2022/06/10 06:05:09;;;;;;;11.80;3.33;;;;;;;15.88;79.16;102049.88;4983450;28;20030;-82
2022/06/10 06:07:35;;;;;;;12.93;3.75;;;;;;;16.33;77.73;102064.22;4995074;28;20084;-85
2022/06/10 06:10:01;;;;;;;11.70;3.20;;;;;;;16.81;75.61;102101.78;4994863;28;20027;-86
2022/06/10 06:12:27;;;;;;;12.90;3.05;;;;;;;16.71;75.25;102053.78;4994558;28;20037;-85
2022/06/10 06:14:56;;;;;;;11.23;2.88;;;;;;;16.72;74.99;102041.59;4994619;28;20032;-87
2022/06/10 06:17:22;;;;;;;7.90;2.67;;;;;;;16.54;75.50;102013.22;5002305;23;20026;-85
2022/06/10 06:19:53;;;;;;;9.07;2.60;;;;;;;16.37;74.59;101999.66;5013246;28;20058;-89
2022/06/10 06:22:21;;;;;;;12.20;2.28;;;;;;;16.23;74.32;101992.78;5014607;28;20030;-82
2022/06/10 06:24:46;;;;;;;8.75;2.40;;;;;;;15.99;74.71;101954.41;5014444;28;20029;-84
2022/06/10 06:27:27;;;;;;;9.65;2.30;;;;;;;16.91;74.74;102105.44;5013887;28;20529;-81
2022/06/10 06:30:02;;;;;;;8.57;2.72;;;;;;;16.06;75.14;101968.72;5014050;28;20022;-82
2022/06/10 06:32:46;;;;;;;10.52;2.60;;;;;;;15.92;74.81;101934.91;4996426;28;20042;-84
2022/06/10 06:35:11;;;;;;;9.32;2.35;;;;;;;16.48;73.47;102038.84;5014175;28;20026;-80
2022/06/10 06:37:38;;;;;;;8.23;2.53;;;;;;;16.79;73.68;102105.44;5013814;28;20030;-81
2022/06/10 06:40:06;;;;;;;11.73;2.75;;;;;;;16.82;74.78;102124.34;5013888;28;20030;-80
2022/06/10 06:42:32;;;;;;;8.32;2.38;;;;;;;16.89;75.57;102125.56;4995650;28;20355;-81
2022/06/10 06:44:57;;;;;;;5.22;1.88;;;;;;;16.95;74.71;102124.31;4996466;28;20053;-83
2022/06/10 06:47:22;;;;;;;9.23;2.53;;;;;;;16.90;73.93;102113.34;5013789;28;20026;-82
2022/06/10 06:49:48;;;;;;;7.22;2.22;;;;;;;16.86;73.90;102102.28;4996322;28;20068;-80
2022/06/10 06:52:13;;;;;;;10.00;2.38;;;;;;;17.07;73.74;102130.44;5013837;28;20030;-79
2022/06/10 06:54:38;;;;;;;11.85;2.45;;;;;;;16.86;73.87;102091.84;4996173;28;20079;-81
2022/06/10 06:57:05;;;;;;;11.35;2.47;;;;;;;17.06;74.07;102111.34;4995980;28;20066;-81
2022/06/10 06:59:32;;;;;;;7.63;2.20;;;;;;;17.25;74.89;102131.78;4996119;28;20036;-81
2022/06/10 07:01:57;;;;;;;8.68;2.50;;;;;;;17.10;73.64;102119.78;5013713;28;20022;-83
2022/06/10 07:04:23;;;;;;;7.32;2.47;;;;;;;17.15;73.63;102136.81;5013723;28;20412;-83
2022/06/10 07:06:48;;;;;;;7.68;2.30;;;;;;;17.24;73.83;102139.72;5013395;28;20100;-83
2022/06/10 07:09:14;;;;;;;9.43;2.25;;;;;;;17.20;73.45;102123.41;5013261;28;20076;-82
2022/06/10 07:11:39;;;;;;;10.60;2.35;;;;;;;16.99;73.02;102070.13;5013451;28;20036;-83
2022/06/10 07:14:05;;;;;;;8.90;1.77;;;;;;;17.49;73.35;102137.84;5013009;28;20033;-82
2022/06/10 07:16:31;;;;;;;8.30;2.17;;;;;;;17.42;70.94;102105.31;5013445;28;20399;-82
2022/06/10 07:18:56;;;;;;;10.52;3.08;;;;;;;17.73;71.71;102135.31;5013066;28;20045;-82
2022/06/10 07:21:22;;;;;;;8.02;2.40;;;;;;;17.95;70.79;102139.81;5013394;28;20105;-81
2022/06/10 07:23:48;;;;;;;10.82;2.08;;;;;;;17.84;70.96;102076.22;5013213;28;20037;-83
2022/06/10 07:26:13;;;;;;;10.65;2.28;;;;;;;18.36;70.05;102122.81;5013088;28;20064;-84
2022/06/10 07:28:39;;;;;;;6.05;1.95;;;;;;;18.62;67.84;102126.91;4995827;28;20022;-84
2022/06/10 07:31:04;;;;;;;10.02;2.38;;;;;;;18.74;66.47;102114.69;5013329;28;20075;-84
2022/06/10 07:33:30;;;;;;;8.77;2.10;;;;;;;18.97;65.63;102119.94;5013257;28;20030;-83
2022/06/10 07:35:56;;;;;;;7.75;1.92;;;;;;;19.26;65.68;102143.84;5013083;28;20469;-84
2022/06/10 07:38:22;;;;;;;8.75;2.20;;;;;;;19.27;65.04;102117.53;5013017;28;20044;-85
2022/06/10 07:43:33;;;;;;;7.70;1.95;;;;;;;19.71;63.04;102098.28;5013094;28;20036;-82
2022/06/10 07:46:03;;;;;;;8.98;1.70;;;;;;;20.07;62.73;102132.09;5012915;28;20457;-85
2022/06/10 07:48:29;;;;;;;12.43;2.17;;;;;;;20.18;62.77;102138.13;5012919;28;20030;-85
2022/06/10 07:50:58;;;;;;;6.90;1.98;;;;;;;19.63;61.65;102056.13;5012892;28;20100;-85
2022/06/10 07:53:23;;;;;;;6.15;2.03;;;;;;;19.95;61.62;102136.53;5012601;28;20025;-85
2022/06/10 07:55:49;;;;;;;7.30;1.65;;;;;;;19.82;63.17;102126.22;4995707;28;20484;-82
2022/06/10 07:58:16;;;;;;;5.90;1.65;;;;;;;19.72;62.15;102118.28;5012729;28;20564;-81
2022/06/10 08:00:42;;;;;;;8.13;1.65;;;;;;;19.49;62.36;102077.34;5012807;28;20092;-84
2022/06/10 08:03:08;;;;;;;8.95;2.33;;;;;;;19.92;62.51;102128.94;5013073;28;20045;-81
2022/06/10 08:05:34;;;;;;;5.97;1.80;;;;;;;19.92;62.31;102131.53;5012900;28;20432;-86
2022/06/10 08:08:01;;;;;;;9.65;1.83;;;;;;;19.96;61.45;102136.44;4994918;28;20018;-83
2022/06/10 08:10:30;;;;;;;6.88;1.63;;;;;;;20.03;61.47;102136.75;5012913;28;20076;-84
2022/06/10 08:12:58;;;;;;;10.52;1.75;;;;;;;19.89;61.65;102129.19;5012671;28;20080;-84
2022/06/10 08:15:24;;;;;;;7.18;1.58;;;;;;;19.76;61.05;102103.97;5012696;28;20025;-83
2022/06/10 08:17:51;;;;;;;9.40;1.90;;;;;;;19.56;62.16;102072.47;5012055;28;20052;-84
2022/06/10 08:20:23;;;;;;;7.20;1.73;;;;;;;20.07;62.58;102135.53;5015467;28;20040;-85
2022/06/10 08:22:49;;;;;;;6.05;1.70;;;;;;;19.88;62.42;102099.53;4998178;28;20022;-82
2022/06/10 08:25:16;;;;;;;7.05;1.70;;;;;;;20.18;60.67;102132.88;4999107;28;20028;-84
2022/06/10 08:27:42;;;;;;;8.98;2.13;;;;;;;19.91;61.01;102085.31;4998982;28;20108;-85
2022/06/10 08:30:13;;;;;;;7.22;1.90;;;;;;;20.21;60.49;102126.53;5016566;28;20118;-86
2022/06/10 08:32:38;;;;;;;8.38;1.63;;;;;;;20.20;59.30;102137.97;5016351;28;20022;-83
2022/06/10 08:35:05;;;;;;;9.27;2.10;;;;;;;20.02;60.00;102120.19;4998782;28;20037;-80
2022/06/10 08:37:33;;;;;;;9.70;2.03;;;;;;;19.97;59.57;102118.91;5014870;28;20124;-86
2022/06/10 08:39:59;;;;;;;6.53;1.95;;;;;;;19.98;59.88;102110.09;4999112;28;20033;-84
2022/06/10 08:42:41;;;;;;;9.48;2.05;;;;;;;20.46;59.44;102135.84;5016164;28;20021;-86
2022/06/10 08:45:42;;;;;;;9.80;2.30;;;;;;;20.58;58.64;102137.44;5016003;28;20028;-85
2022/06/10 08:48:08;;;;;;;;;;;;;;;20.84;58.37;102137.81;4998950;28;20022;-83
2022/06/10 08:50:47;;;;;;;13.90;2.90;;;;;;;20.52;58.56;102102.03;5015975;28;19913;-84
2022/06/10 08:53:27;;;;;;;8.15;2.40;;;;;;;20.89;58.75;102123.34;5016220;28;20038;-86
2022/06/10 08:56:23;;;;;;;10.43;2.58;;;;;;;20.89;57.37;102114.63;5016245;28;20026;-86
2022/06/10 08:59:18;;;;;;;9.18;3.03;;;;;;;21.18;57.46;102127.84;4998212;28;20388;-87
2022/06/10 09:01:52;;;;;;;11.38;2.55;;;;;;;21.09;58.12;102123.41;5000162;28;20021;-94
2022/06/10 09:04:28;;;;;;;11.18;3.03;;;;;;;21.07;55.52;102135.84;5015671;28;20413;-90
2022/06/10 09:07:11;;;;;;;7.75;2.78;;;;;;;21.03;56.11;102126.56;4998439;28;20111;-87
2022/06/10 09:09:41;;;;;;;10.60;2.70;;;;;;;20.26;56.50;101961.72;5015810;28;20033;-86
2022/06/10 09:12:55;;;;;;;9.32;2.53;;;;;;;21.61;57.46;102131.97;5015695;28;20022;-85
2022/06/10 09:15:23;;;;;;;9.65;2.38;;;;;;;20.96;56.13;102036.16;5014720;28;20037;-83
2022/06/10 09:18:07;;;;;;;8.63;2.67;;;;;;;21.04;57.21;102065.19;5015100;28;20050;-86
2022/06/10 09:20:46;;;;;;;11.15;2.85;;;;;;;21.39;56.78;102125.16;5015864;28;20887;-84
2022/06/10 09:23:29;;;;;;;10.50;2.50;;;;;;;21.20;58.26;102118.88;5014425;28;20029;-84
2022/06/10 09:25:59;;;;;;;9.63;2.15;;;;;;;21.33;60.03;102131.78;4997872;28;20469;-87
2022/06/10 09:28:24;;;;;;;9.10;2.75;;;;;;;21.09;59.89;102112.91;5015481;28;20050;-81
2022/06/10 09:30:59;;;;;;;8.88;2.80;;;;;;;21.02;60.60;102090.75;5014916;28;20061;-81
2022/06/10 09:34:10;;;;;;;9.52;2.53;;;;;;;21.18;61.67;102133.13;5015143;28;20032;-84
2022/06/10 09:37:09;;;;;;;7.95;2.75;;;;;;;21.18;60.12;102075.31;5015127;28;20033;-80
2022/06/10 09:42:44;;;;;;;10.02;2.92;;;;;;;21.61;60.36;102124.91;4974247;28;20057;-82
2022/06/10 09:45:24;;;;;;;9.48;3.25;;;;;;;21.54;60.32;102128.25;4973829;28;20069;-83
2022/06/10 09:48:11;;;;;;;11.33;2.60;;;;;;;21.60;60.13;102135.56;4973453;28;20057;-81
2022/06/10 09:50:51;;;;;;;10.00;3.15;;;;;;;21.90;58.39;102140.72;4957705;28;20398;-78
2022/06/10 09:53:24;;;;;;;11.68;3.08;;;;;;;22.03;58.27;102101.00;4957583;28;20038;-83
2022/06/10 09:56:07;;;;;;;10.30;2.60;;;;;;;22.45;56.32;102134.88;4973481;28;20113;-83
2022/06/10 09:58:58;;;;;;;10.40;2.78;;;;;;;22.38;56.24;102110.91;4957476;28;20034;-80
2022/06/10 10:01:34;;;;;;;;;;;;;;;22.76;54.82;102128.41;4973216;28;20512;-81
2022/06/10 10:04:37;;;;;;;8.73;3.13;;;;;;;22.21;56.95;102070.38;4973759;28;20408;-81
2022/06/10 10:07:40;;;;;;;11.73;3.50;;;;;;;22.37;55.23;102085.56;4954898;28;20046;-81
2022/06/10 10:10:45;;;;;;;9.35;2.72;;;;;;;21.99;56.08;101992.56;4956612;28;20039;-83
2022/06/10 10:13:37;;;;;;;10.98;2.72;;;;;;;22.94;54.90;102136.41;4973750;28;20058;-82
2022/06/10 10:16:15;;;;;;;10.48;3.13;;;;;;;23.31;54.89;102132.88;4989849;28;20048;-82
2022/06/10 10:22:16;;;;;;;9.90;3.60;;;;;;;22.93;54.68;102132.09;5012971;28;20039;-81
2022/06/10 10:24:44;;;;;;;11.60;3.55;;;;;;;22.75;55.60;102115.38;5014272;28;20410;-79
2022/06/10 10:27:34;;;;;;;11.30;3.20;;;;;;;22.69;56.12;102122.03;4996681;28;20026;-80
2022/06/10 10:30:18;;;;;;;9.57;2.85;;;;;;;22.61;56.34;102119.28;5012856;28;20032;-79
2022/06/10 10:32:51;;;;;;;10.02;3.25;;;;;;;22.35;57.67;102081.44;5014178;28;20034;-79
2022/06/10 10:35:24;;;;;;;10.20;3.63;;;;;;;22.52;56.65;102121.00;5013016;28;20022;-80
2022/06/10 10:38:01;;;;;;;12.43;3.22;;;;;;;22.45;57.31;102111.19;4996366;28;20040;-82
2022/06/10 10:40:41;;;;;;;14.23;3.42;;;;;;;22.25;58.44;102055.97;5014121;28;20045;-81
2022/06/10 10:43:24;;;;;;;9.98;2.90;;;;;;;22.75;55.68;102045.09;5013405;28;20053;-80
2022/06/10 10:46:03;;;;;;;14.20;3.55;;;;;;;23.41;54.71;102117.84;5012695;28;20101;-81
2022/06/10 10:48:34;;;;;;;10.55;2.90;;;;;;;23.46;54.73;102091.84;4995922;28;20488;-81
2022/06/10 10:51:03;;;;;;;9.43;3.25;;;;;;;23.69;54.00;102098.34;4996347;28;20030;-80
2022/06/10 10:53:41;;;;;;;8.05;3.08;;;;;;;23.85;53.02;102112.66;5013645;28;20036;-81
2022/06/10 10:56:12;;;;;;;10.18;3.42;;;;;;;23.51;53.50;102100.13;4996129;28;20084;-83
2022/06/10 10:58:40;;;;;;;9.45;3.15;;;;;;;23.70;53.11;102120.28;5013933;28;20417;-82
2022/06/10 11:01:43;;;;;;;9.02;3.80;;;;;;;23.47;54.80;102117.22;5013759;28;20033;-81
2022/06/10 11:03:59;;;;;;;11.05;4.10;;;;;;;23.24;55.03;102116.81;5013330;28;20033;-81
2022/06/10 11:06:32;;;;;;;8.98;3.50;;;;;;;22.98;56.25;102124.59;4995932;28;20033;-83
2022/06/10 11:09:14;;;;;;;9.85;3.38;;;;;;;22.83;57.03;102123.38;5012520;28;20384;-82
2022/06/10 11:11:46;;;;;;;10.38;3.53;;;;;;;22.80;55.99;102128.91;5013408;28;20492;-82
2022/06/10 11:14:30;;;;;;;;;;;;;;;;;;;;;
2022/06/10 11:17:11;;;;;;;12.75;4.13;;;;;;;23.32;56.56;102122.19;4946581;28;20052;-83
2022/06/10 11:20:23;;;;;;;11.55;3.22;;;;;;;23.63;56.86;102117.41;4987113;28;20478;-84
2022/06/10 11:23:12;;;;;;;13.55;3.78;;;;;;;23.18;56.14;102023.34;4993854;28;20145;-83
2022/06/10 11:26:16;;;;;;;10.82;3.35;;;;;;;23.97;56.36;102111.44;4976035;28;20034;-83
2022/06/10 11:29:21;;;;;;;8.88;2.92;;;;;;;23.86;55.14;102064.19;4975683;28;20092;-84
2022/06/10 11:32:11;;;;;;;8.65;3.00;;;;;;;24.06;54.03;102117.59;4975844;28;20050;-83
2022/06/10 11:35:02;;;;;;;10.45;2.85;;;;;;;23.50;55.85;102061.56;4993547;28;20069;-84
2022/06/10 11:37:40;;;;;;;10.57;3.50;;;;;;;23.70;54.30;102115.84;4993330;28;20026;-82
2022/06/10 11:40:28;;;;;;;8.32;2.95;;;;;;;23.17;55.13;102105.22;4993487;28;20042;-81
2022/06/10 11:43:22;;;;;;;11.25;3.20;;;;;;;22.08;56.62;101950.63;4993616;28;20049;-85
2022/06/10 11:45:54;;;;;;;10.38;2.97;;;;;;;22.99;57.05;102049.84;4993216;28;20073;-83
2022/06/10 11:48:22;;;;;;;11.02;3.30;;;;;;;23.40;55.75;102080.09;4993571;28;20105;-86
2022/06/10 11:51:21;;;;;;;9.98;2.90;;;;;;;23.68;57.04;102072.13;4993555;28;20027;-84
2022/06/10 11:54:14;;;;;;;9.20;2.67;;;;;;;23.91;55.15;102101.50;4913722;29;20388;-83
2022/06/10 12:00:49;;;;;;;8.23;2.40;;;;;;;23.68;55.45;102096.69;4914821;29;20047;-86
2022/06/10 12:03:55;;;;;;;10.13;2.83;;;;;;;23.63;57.06;102096.31;4914362;29;20083;-87
2022/06/10 12:07:02;;;;;;;8.82;2.72;;;;;;;23.10;57.20;102004.00;4914195;29;20112;-87
2022/06/10 12:10:10;;;;;;;10.48;3.30;;;;;;;23.73;55.81;102080.41;4914216;29;20032;-87
2022/06/10 12:12:53;;;;;;;7.93;3.00;;;;;;;22.58;54.96;101935.28;4914426;29;20051;-87
2022/06/10 12:15:30;;;;;;;17.05;3.33;;;;;;;23.45;54.69;102077.81;4914449;29;20465;-86
2022/06/10 12:18:00;;;;;;;11.15;3.40;;;;;;;23.24;55.84;102032.50;4913482;29;20053;-86
2022/06/10 12:20:45;;;;;;;9.77;2.95;;;;;;;23.73;57.46;102081.25;4913002;29;20152;-84